sensor_id;sensor_type;location;lat;lon;timestamp;pressure;altitude;pressure_sealevel;temperature
19196;BMP280;9730;48.926;11.376;2022-12-18T00:02:01;98610.50;;;-7.93
19196;BMP280;9730;48.926;11.376;2022-12-18T00:04:29;98632.25;;;-7.99
19196;BMP280;9730;48.926;11.376;2022-12-18T00:06:57;98655.47;;;-8.29
19196;BMP280;9730;48.926;11.376;2022-12-18T00:09:24;98661.28;;;-8.27
19196;BMP280;9730;48.926;11.376;2022-12-18T00:11:50;98665.53;;;-8.23
19196;BMP280;9730;48.926;11.376;2022-12-18T00:14:17;98661.28;;;-8.27
19196;BMP280;9730;48.926;11.376;2022-12-18T00:16:44;98651.75;;;-8.21
19196;BMP280;9730;48.926;11.376;2022-12-18T00:19:12;98652.53;;;-8.03
19196;BMP280;9730;48.926;11.376;2022-12-18T00:21:38;98646.19;;;-7.98
19196;BMP280;9730;48.926;11.376;2022-12-18T00:24:07;98645.44;;;-7.97
19196;BMP280;9730;48.926;11.376;2022-12-18T00:26:34;98621.81;;;-7.95
19196;BMP280;9730;48.926;11.376;2022-12-18T00:29:05;98606.00;;;-7.64
19196;BMP280;9730;48.926;11.376;2022-12-18T00:31:32;98633.25;;;-7.96
19196;BMP280;9730;48.926;11.376;2022-12-18T00:34:00;98646.16;;;-7.81
19196;BMP280;9730;48.926;11.376;2022-12-18T00:36:28;98635.06;;;-7.14
19196;BMP280;9730;48.926;11.376;2022-12-18T00:38:57;98639.22;;;-7.71
19196;BMP280;9730;48.926;11.376;2022-12-18T00:41:25;98639.50;;;-7.84
19196;BMP280;9730;48.926;11.376;2022-12-18T00:44:11;98639.88;;;-7.93
19196;BMP280;9730;48.926;11.376;2022-12-18T00:46:39;98630.25;;;-8.08
19196;BMP280;9730;48.926;11.376;2022-12-18T00:49:06;98633.97;;;-7.80
19196;BMP280;9730;48.926;11.376;2022-12-18T00:51:33;98645.88;;;-7.68
19196;BMP280;9730;48.926;11.376;2022-12-18T00:54:00;98648.47;;;-7.84
19196;BMP280;9730;48.926;11.376;2022-12-18T00:56:27;98647.38;;;-7.72
19196;BMP280;9730;48.926;11.376;2022-12-18T00:58:54;98600.28;;;-6.62
19196;BMP280;9730;48.926;11.376;2022-12-18T01:01:21;98620.28;;;-5.84
19196;BMP280;9730;48.926;11.376;2022-12-18T01:03:48;98668.16;;;-6.20
19196;BMP280;9730;48.926;11.376;2022-12-18T01:06:15;98705.69;;;-6.02
19196;BMP280;9730;48.926;11.376;2022-12-18T01:08:42;98711.53;;;-6.41
19196;BMP280;9730;48.926;11.376;2022-12-18T01:11:11;98710.69;;;-5.99
19196;BMP280;9730;48.926;11.376;2022-12-18T01:13:41;98691.75;;;-5.80
19196;BMP280;9730;48.926;11.376;2022-12-18T01:16:10;98697.38;;;-6.48
19196;BMP280;9730;48.926;11.376;2022-12-18T01:18:37;98693.41;;;-6.44
19196;BMP280;9730;48.926;11.376;2022-12-18T01:21:06;98683.72;;;-6.62
19196;BMP280;9730;48.926;11.376;2022-12-18T01:23:36;98687.75;;;-6.84
19196;BMP280;9730;48.926;11.376;2022-12-18T01:26:06;98680.69;;;-7.17
19196;BMP280;9730;48.926;11.376;2022-12-18T01:28:34;98677.16;;;-7.24
19196;BMP280;9730;48.926;11.376;2022-12-18T01:31:14;98671.06;;;-7.13
19196;BMP280;9730;48.926;11.376;2022-12-18T01:33:41;98675.91;;;-7.14
19196;BMP280;9730;48.926;11.376;2022-12-18T01:36:08;98677.56;;;-6.94
19196;BMP280;9730;48.926;11.376;2022-12-18T01:38:35;98677.28;;;-7.00
19196;BMP280;9730;48.926;11.376;2022-12-18T01:41:01;98674.28;;;-6.93
19196;BMP280;9730;48.926;11.376;2022-12-18T01:43:41;98667.72;;;-7.15
19196;BMP280;9730;48.926;11.376;2022-12-18T01:46:08;98664.31;;;-6.98
19196;BMP280;9730;48.926;11.376;2022-12-18T01:48:36;98653.19;;;-7.10
19196;BMP280;9730;48.926;11.376;2022-12-18T01:51:04;98641.38;;;-7.59
19196;BMP280;9730;48.926;11.376;2022-12-18T01:53:31;98650.69;;;-7.31
19196;BMP280;9730;48.926;11.376;2022-12-18T01:55:58;98651.91;;;-7.21
19196;BMP280;9730;48.926;11.376;2022-12-18T01:58:30;98650.94;;;-7.45
19196;BMP280;9730;48.926;11.376;2022-12-18T02:00:59;98642.03;;;-7.43
19196;BMP280;9730;48.926;11.376;2022-12-18T02:03:25;98652.38;;;-7.30
19196;BMP280;9730;48.926;11.376;2022-12-18T02:05:59;98665.44;;;-7.10
19196;BMP280;9730;48.926;11.376;2022-12-18T02:08:33;98671.38;;;-7.05
19196;BMP280;9730;48.926;11.376;2022-12-18T02:11:06;98665.50;;;-7.09
19196;BMP280;9730;48.926;11.376;2022-12-18T02:13:40;98658.31;;;-7.04
19196;BMP280;9730;48.926;11.376;2022-12-18T02:16:15;98659.13;;;-7.05
19196;BMP280;9730;48.926;11.376;2022-12-18T02:18:47;98659.81;;;-7.28
19196;BMP280;9730;48.926;11.376;2022-12-18T02:21:25;98660.06;;;-7.22
19196;BMP280;9730;48.926;11.376;2022-12-18T02:23:59;98643.47;;;-7.07
19196;BMP280;9730;48.926;11.376;2022-12-18T02:26:35;98645.44;;;-6.99
19196;BMP280;9730;48.926;11.376;2022-12-18T02:29:08;98651.00;;;-6.83
19196;BMP280;9730;48.926;11.376;2022-12-18T02:31:39;98659.50;;;-6.75
19196;BMP280;9730;48.926;11.376;2022-12-18T02:34:08;98661.97;;;-6.75
19196;BMP280;9730;48.926;11.376;2022-12-18T02:36:40;98659.94;;;-6.84
19196;BMP280;9730;48.926;11.376;2022-12-18T02:39:10;98653.25;;;-6.88
19196;BMP280;9730;48.926;11.376;2022-12-18T02:41:44;98642.44;;;-6.92
19196;BMP280;9730;48.926;11.376;2022-12-18T02:44:13;98630.84;;;-6.76
19196;BMP280;9730;48.926;11.376;2022-12-18T02:46:42;98631.69;;;-6.75
19196;BMP280;9730;48.926;11.376;2022-12-18T02:49:21;98645.25;;;-6.63
19196;BMP280;9730;48.926;11.376;2022-12-18T02:51:53;98653.63;;;-6.58
19196;BMP280;9730;48.926;11.376;2022-12-18T02:54:36;98645.75;;;-6.49
19196;BMP280;9730;48.926;11.376;2022-12-18T02:57:15;98646.63;;;-6.27
19196;BMP280;9730;48.926;11.376;2022-12-18T02:59:50;98642.88;;;-6.39
19196;BMP280;9730;48.926;11.376;2022-12-18T03:02:25;98640.75;;;-6.31
19196;BMP280;9730;48.926;11.376;2022-12-18T03:04:56;98645.75;;;-6.28
19196;BMP280;9730;48.926;11.376;2022-12-18T03:07:34;98644.38;;;-6.21
19196;BMP280;9730;48.926;11.376;2022-12-18T03:10:09;98642.41;;;-6.08
19196;BMP280;9730;48.926;11.376;2022-12-18T03:12:42;98634.97;;;-6.09
19196;BMP280;9730;48.926;11.376;2022-12-18T03:15:15;98638.63;;;-5.98
19196;BMP280;9730;48.926;11.376;2022-12-18T03:17:46;98646.25;;;-5.92
19196;BMP280;9730;48.926;11.376;2022-12-18T03:20:19;98654.00;;;-5.80
19196;BMP280;9730;48.926;11.376;2022-12-18T03:22:50;98656.75;;;-5.96
19196;BMP280;9730;48.926;11.376;2022-12-18T03:25:19;98655.28;;;-5.67
19196;BMP280;9730;48.926;11.376;2022-12-18T03:27:50;98650.81;;;-5.55
19196;BMP280;9730;48.926;11.376;2022-12-18T03:30:19;98641.97;;;-5.50
19196;BMP280;9730;48.926;11.376;2022-12-18T03:32:50;98648.19;;;-5.59
19196;BMP280;9730;48.926;11.376;2022-12-18T03:35:25;98646.84;;;-5.51
19196;BMP280;9730;48.926;11.376;2022-12-18T03:37:53;98647.66;;;-5.51
19196;BMP280;9730;48.926;11.376;2022-12-18T03:40:21;98637.34;;;-5.64
19196;BMP280;9730;48.926;11.376;2022-12-18T03:42:56;98642.78;;;-5.49
19196;BMP280;9730;48.926;11.376;2022-12-18T03:45:28;98630.97;;;-5.36
19196;BMP280;9730;48.926;11.376;2022-12-18T03:48:03;98629.88;;;-5.19
19196;BMP280;9730;48.926;11.376;2022-12-18T03:50:40;98640.63;;;-5.16
19196;BMP280;9730;48.926;11.376;2022-12-18T03:53:18;98646.50;;;-5.12
19196;BMP280;9730;48.926;11.376;2022-12-18T03:55:48;98657.53;;;-5.26
19196;BMP280;9730;48.926;11.376;2022-12-18T03:58:19;98664.13;;;-5.25
19196;BMP280;9730;48.926;11.376;2022-12-18T04:00:56;98656.63;;;-5.03
19196;BMP280;9730;48.926;11.376;2022-12-18T04:03:26;98651.41;;;-5.12
19196;BMP280;9730;48.926;11.376;2022-12-18T04:05:57;98658.13;;;-5.08
19196;BMP280;9730;48.926;11.376;2022-12-18T04:08:26;98664.81;;;-5.29
19196;BMP280;9730;48.926;11.376;2022-12-18T04:11:01;98662.19;;;-5.09
19196;BMP280;9730;48.926;11.376;2022-12-18T04:13:33;98664.44;;;-5.15
19196;BMP280;9730;48.926;11.376;2022-12-18T04:16:02;98662.19;;;-5.09
19196;BMP280;9730;48.926;11.376;2022-12-18T04:18:29;98648.38;;;-5.05
19196;BMP280;9730;48.926;11.376;2022-12-18T04:20:56;98646.63;;;-5.08
19196;BMP280;9730;48.926;11.376;2022-12-18T04:23:23;98651.25;;;-4.92
19196;BMP280;9730;48.926;11.376;2022-12-18T04:25:52;98651.50;;;-4.84
19196;BMP280;9730;48.926;11.376;2022-12-18T04:28:33;98639.28;;;-4.81
19196;BMP280;9730;48.926;11.376;2022-12-18T04:31:00;98654.31;;;-4.74
19196;BMP280;9730;48.926;11.376;2022-12-18T04:33:27;98664.44;;;-4.90
19196;BMP280;9730;48.926;11.376;2022-12-18T04:35:53;98663.72;;;-4.87
19196;BMP280;9730;48.926;11.376;2022-12-18T04:38:20;98675.25;;;-4.86
19196;BMP280;9730;48.926;11.376;2022-12-18T04:40:53;98682.03;;;-5.04
19196;BMP280;9730;48.926;11.376;2022-12-18T04:43:24;98684.09;;;-4.91
19196;BMP280;9730;48.926;11.376;2022-12-18T04:45:52;98684.03;;;-4.93
19196;BMP280;9730;48.926;11.376;2022-12-18T04:48:20;98683.53;;;-4.83
19196;BMP280;9730;48.926;11.376;2022-12-18T04:50:46;98682.41;;;-4.92
19196;BMP280;9730;48.926;11.376;2022-12-18T04:53:13;98671.22;;;-4.83
19196;BMP280;9730;48.926;11.376;2022-12-18T04:55:39;98686.13;;;-4.78
19196;BMP280;9730;48.926;11.376;2022-12-18T04:58:06;98696.47;;;-4.64
19196;BMP280;9730;48.926;11.376;2022-12-18T05:00:32;98697.28;;;-4.63
19196;BMP280;9730;48.926;11.376;2022-12-18T05:03:01;98703.13;;;-4.61
19196;BMP280;9730;48.926;11.376;2022-12-18T05:05:28;98706.38;;;-4.62
19196;BMP280;9730;48.926;11.376;2022-12-18T05:07:54;98703.00;;;-4.66
19196;BMP280;9730;48.926;11.376;2022-12-18T05:10:21;98699.31;;;-4.78
19196;BMP280;9730;48.926;11.376;2022-12-18T05:12:48;98695.66;;;-4.89
19196;BMP280;9730;48.926;11.376;2022-12-18T05:15:28;98692.16;;;-4.71
19196;BMP280;9730;48.926;11.376;2022-12-18T05:17:54;98698.75;;;-4.70
19196;BMP280;9730;48.926;11.376;2022-12-18T05:20:23;98693.34;;;-4.58
19196;BMP280;9730;48.926;11.376;2022-12-18T05:22:49;98700.69;;;-4.60
19196;BMP280;9730;48.926;11.376;2022-12-18T05:25:16;98701.75;;;-4.53
19196;BMP280;9730;48.926;11.376;2022-12-18T05:27:43;98692.75;;;-4.51
19196;BMP280;9730;48.926;11.376;2022-12-18T05:30:11;98697.56;;;-4.56
19196;BMP280;9730;48.926;11.376;2022-12-18T05:32:37;98705.75;;;-4.55
19196;BMP280;9730;48.926;11.376;2022-12-18T05:35:06;98707.44;;;-4.54
19196;BMP280;9730;48.926;11.376;2022-12-18T05:37:34;98695.88;;;-4.57
19196;BMP280;9730;48.926;11.376;2022-12-18T05:40:01;98705.16;;;-4.48
19196;BMP280;9730;48.926;11.376;2022-12-18T05:42:28;98724.91;;;-4.47
19196;BMP280;9730;48.926;11.376;2022-12-18T05:44:54;98723.25;;;-4.48
19196;BMP280;9730;48.926;11.376;2022-12-18T05:47:21;98713.38;;;-4.49
19196;BMP280;9730;48.926;11.376;2022-12-18T05:49:47;98706.81;;;-4.49
19196;BMP280;9730;48.926;11.376;2022-12-18T05:52:14;98710.94;;;-4.48
19196;BMP280;9730;48.926;11.376;2022-12-18T05:54:42;98701.78;;;-4.52
19196;BMP280;9730;48.926;11.376;2022-12-18T05:57:08;98697.97;;;-4.42
19196;BMP280;9730;48.926;11.376;2022-12-18T05:59:35;98704.72;;;-4.37
19196;BMP280;9730;48.926;11.376;2022-12-18T06:02:02;98706.03;;;-4.48
19196;BMP280;9730;48.926;11.376;2022-12-18T06:04:29;98717.72;;;-4.41
19196;BMP280;9730;48.926;11.376;2022-12-18T06:06:56;98716.97;;;-4.38
19196;BMP280;9730;48.926;11.376;2022-12-18T06:09:22;98719.41;;;-4.38
19196;BMP280;9730;48.926;11.376;2022-12-18T06:11:51;98725.44;;;-4.30
19196;BMP280;9730;48.926;11.376;2022-12-18T06:14:17;98733.94;;;-4.21
19196;BMP280;9730;48.926;11.376;2022-12-18T06:16:44;98731.03;;;-4.34
19196;BMP280;9730;48.926;11.376;2022-12-18T06:19:14;98726.88;;;-4.37
19196;BMP280;9730;48.926;11.376;2022-12-18T06:21:40;98730.34;;;-4.30
19196;BMP280;9730;48.926;11.376;2022-12-18T06:24:07;98732.16;;;-4.25
19196;BMP280;9730;48.926;11.376;2022-12-18T06:26:34;98749.75;;;-4.15
19196;BMP280;9730;48.926;11.376;2022-12-18T06:29:04;98743.72;;;-4.24
19196;BMP280;9730;48.926;11.376;2022-12-18T06:31:30;98740.41;;;-4.24
19196;BMP280;9730;48.926;11.376;2022-12-18T06:33:57;98739.28;;;-4.08
19196;BMP280;9730;48.926;11.376;2022-12-18T06:36:23;98743.41;;;-4.07
19196;BMP280;9730;48.926;11.376;2022-12-18T06:38:50;98735.75;;;-4.16
19196;BMP280;9730;48.926;11.376;2022-12-18T06:41:18;98738.34;;;-4.11
19196;BMP280;9730;48.926;11.376;2022-12-18T06:43:45;98745.25;;;-4.00
19196;BMP280;9730;48.926;11.376;2022-12-18T06:46:12;98747.28;;;-4.15
19196;BMP280;9730;48.926;11.376;2022-12-18T06:48:39;98742.72;;;-4.29
19196;BMP280;9730;48.926;11.376;2022-12-18T06:51:06;98744.13;;;-4.11
19196;BMP280;9730;48.926;11.376;2022-12-18T06:53:33;98765.78;;;-4.01
19196;BMP280;9730;48.926;11.376;2022-12-18T06:56:00;98757.19;;;-4.13
19196;BMP280;9730;48.926;11.376;2022-12-18T06:58:27;98754.91;;;-4.07
19196;BMP280;9730;48.926;11.376;2022-12-18T07:00:59;98756.78;;;-3.99
19196;BMP280;9730;48.926;11.376;2022-12-18T07:03:27;98756.81;;;-4.25
19196;BMP280;9730;48.926;11.376;2022-12-18T07:05:54;98765.66;;;-4.05
19196;BMP280;9730;48.926;11.376;2022-12-18T07:08:21;98763.53;;;-3.93
19196;BMP280;9730;48.926;11.376;2022-12-18T07:10:47;98770.63;;;-4.04
19196;BMP280;9730;48.926;11.376;2022-12-18T07:13:14;98760.66;;;-4.33
19196;BMP280;9730;48.926;11.376;2022-12-18T07:15:41;98756.63;;;-4.31
19196;BMP280;9730;48.926;11.376;2022-12-18T07:18:07;98752.50;;;-4.32
19196;BMP280;9730;48.926;11.376;2022-12-18T07:20:35;98752.16;;;-4.42
19196;BMP280;9730;48.926;11.376;2022-12-18T07:23:02;98748.28;;;-4.34
19196;BMP280;9730;48.926;11.376;2022-12-18T07:25:28;98757.50;;;-4.29
19196;BMP280;9730;48.926;11.376;2022-12-18T07:27:55;98753.94;;;-4.12
19196;BMP280;9730;48.926;11.376;2022-12-18T07:30:21;98749.84;;;-4.38
19196;BMP280;9730;48.926;11.376;2022-12-18T07:32:48;98754.44;;;-4.22
19196;BMP280;9730;48.926;11.376;2022-12-18T07:35:15;98753.09;;;-4.13
19196;BMP280;9730;48.926;11.376;2022-12-18T07:37:42;98747.47;;;-4.09
19196;BMP280;9730;48.926;11.376;2022-12-18T07:40:10;98760.13;;;-3.98
19196;BMP280;9730;48.926;11.376;2022-12-18T07:42:37;98762.16;;;-4.12
19196;BMP280;9730;48.926;11.376;2022-12-18T07:45:04;98764.19;;;-3.99
19196;BMP280;9730;48.926;11.376;2022-12-18T07:47:34;98768.44;;;-4.21
19196;BMP280;9730;48.926;11.376;2022-12-18T07:50:00;98768.00;;;-4.08
19196;BMP280;9730;48.926;11.376;2022-12-18T07:52:27;98773.97;;;-4.02
19196;BMP280;9730;48.926;11.376;2022-12-18T07:54:54;98780.97;;;-3.87
19196;BMP280;9730;48.926;11.376;2022-12-18T07:57:21;98778.50;;;-3.87
19196;BMP280;9730;48.926;11.376;2022-12-18T07:59:47;98775.28;;;-3.85
19196;BMP280;9730;48.926;11.376;2022-12-18T08:02:14;98773.06;;;-3.77
19196;BMP280;9730;48.926;11.376;2022-12-18T08:04:40;98786.31;;;-3.74
19196;BMP280;9730;48.926;11.376;2022-12-18T08:07:07;98805.63;;;-3.61
19196;BMP280;9730;48.926;11.376;2022-12-18T08:09:33;98805.63;;;-3.61
19196;BMP280;9730;48.926;11.376;2022-12-18T08:12:02;98808.34;;;-3.52
19196;BMP280;9730;48.926;11.376;2022-12-18T08:14:28;98810.47;;;-3.63
19196;BMP280;9730;48.926;11.376;2022-12-18T08:16:55;98813.84;;;-3.61
19196;BMP280;9730;48.926;11.376;2022-12-18T08:19:21;98809.94;;;-3.54
19196;BMP280;9730;48.926;11.376;2022-12-18T08:21:48;98817.44;;;-3.50
19196;BMP280;9730;48.926;11.376;2022-12-18T08:24:14;98824.31;;;-3.40
19196;BMP280;9730;48.926;11.376;2022-12-18T08:26:42;98839.75;;;-3.47
19196;BMP280;9730;48.926;11.376;2022-12-18T08:29:11;98834.44;;;-3.59
19196;BMP280;9730;48.926;11.376;2022-12-18T08:31:38;98838.88;;;-3.49
19196;BMP280;9730;48.926;11.376;2022-12-18T08:34:04;98834.81;;;-3.47
19196;BMP280;9730;48.926;11.376;2022-12-18T08:36:31;98840.72;;;-3.42
19196;BMP280;9730;48.926;11.376;2022-12-18T08:38:57;98830.28;;;-3.33
19196;BMP280;9730;48.926;11.376;2022-12-18T08:41:24;98828.88;;;-3.24
19196;BMP280;9730;48.926;11.376;2022-12-18T08:43:50;98834.34;;;-3.05
19196;BMP280;9730;48.926;11.376;2022-12-18T08:46:37;98837.53;;;-3.10
19196;BMP280;9730;48.926;11.376;2022-12-18T08:49:05;98840.06;;;-3.07
19196;BMP280;9730;48.926;11.376;2022-12-18T08:51:32;98839.00;;;-3.44
19196;BMP280;9730;48.926;11.376;2022-12-18T08:53:59;98830.03;;;-3.41
19196;BMP280;9730;48.926;11.376;2022-12-18T08:56:26;98818.28;;;-3.49
19196;BMP280;9730;48.926;11.376;2022-12-18T08:58:52;98832.81;;;-3.30
19196;BMP280;9730;48.926;11.376;2022-12-18T09:01:19;98831.09;;;-3.04
19196;BMP280;9730;48.926;11.376;2022-12-18T09:03:48;98818.44;;;-3.43
19196;BMP280;9730;48.926;11.376;2022-12-18T09:06:16;98816.31;;;-3.31
19196;BMP280;9730;48.926;11.376;2022-12-18T09:08:43;98819.69;;;-3.29
19196;BMP280;9730;48.926;11.376;2022-12-18T09:11:13;98815.06;;;-3.47
19196;BMP280;9730;48.926;11.376;2022-12-18T09:13:40;98817.06;;;-3.34
19196;BMP280;9730;48.926;11.376;2022-12-18T09:16:07;98816.28;;;-3.33
19196;BMP280;9730;48.926;11.376;2022-12-18T09:18:33;98817.50;;;-3.19
19196;BMP280;9730;48.926;11.376;2022-12-18T09:21:07;98817.31;;;-3.26
19196;BMP280;9730;48.926;11.376;2022-12-18T09:23:33;98825.28;;;-3.06
19196;BMP280;9730;48.926;11.376;2022-12-18T09:26:00;98824.31;;;-3.11
19196;BMP280;9730;48.926;11.376;2022-12-18T09:28:26;98813.28;;;-3.23
19196;BMP280;9730;48.926;11.376;2022-12-18T09:30:53;98811.19;;;-3.10
19196;BMP280;9730;48.926;11.376;2022-12-18T09:33:20;98812.06;;;-3.08
19196;BMP280;9730;48.926;11.376;2022-12-18T09:35:46;98811.44;;;-2.99
19196;BMP280;9730;48.926;11.376;2022-12-18T09:38:16;98807.78;;;-2.84
19196;BMP280;9730;48.926;11.376;2022-12-18T09:40:46;98816.31;;;-3.02
19196;BMP280;9730;48.926;11.376;2022-12-18T09:43:17;98801.31;;;-3.10
19196;BMP280;9730;48.926;11.376;2022-12-18T09:45:47;98797.38;;;-3.03
19196;BMP280;9730;48.926;11.376;2022-12-18T09:48:19;98789.75;;;-3.11
19196;BMP280;9730;48.926;11.376;2022-12-18T09:50:48;98785.88;;;-3.03
19196;BMP280;9730;48.926;11.376;2022-12-18T09:53:19;98772.72;;;-3.02
19196;BMP280;9730;48.926;11.376;2022-12-18T09:55:48;98778.25;;;-2.79
19196;BMP280;9730;48.926;11.376;2022-12-18T09:58:20;98791.53;;;-2.74
19196;BMP280;9730;48.926;11.376;2022-12-18T10:00:51;98783.84;;;-2.53
19196;BMP280;9730;48.926;11.376;2022-12-18T10:03:18;98788.38;;;-2.37
19196;BMP280;9730;48.926;11.376;2022-12-18T10:05:54;98771.53;;;-2.85
19196;BMP280;9730;48.926;11.376;2022-12-18T10:08:34;98775.72;;;-2.49
19196;BMP280;9730;48.926;11.376;2022-12-18T10:11:20;98780.91;;;-2.40
19196;BMP280;9730;48.926;11.376;2022-12-18T10:13:52;98786.88;;;-2.30
19196;BMP280;9730;48.926;11.376;2022-12-18T10:16:26;98791.34;;;-2.16
19196;BMP280;9730;48.926;11.376;2022-12-18T10:19:01;98785.81;;;-2.06
19196;BMP280;9730;48.926;11.376;2022-12-18T10:21:39;98800.34;;;-1.84
19196;BMP280;9730;48.926;11.376;2022-12-18T10:24:16;98767.47;;;-2.81
19196;BMP280;9730;48.926;11.376;2022-12-18T10:26:47;98756.13;;;-2.75
19196;BMP280;9730;48.926;11.376;2022-12-18T10:29:15;98753.00;;;-2.68
19196;BMP280;9730;48.926;11.376;2022-12-18T10:31:42;98746.34;;;-2.38
19196;BMP280;9730;48.926;11.376;2022-12-18T10:34:09;98762.63;;;-2.10
19196;BMP280;9730;48.926;11.376;2022-12-18T10:36:36;98774.00;;;-2.17
19196;BMP280;9730;48.926;11.376;2022-12-18T10:39:16;98772.13;;;-1.91
19196;BMP280;9730;48.926;11.376;2022-12-18T10:41:42;98761.81;;;-2.10
19196;BMP280;9730;48.926;11.376;2022-12-18T10:44:12;98743.94;;;-2.35
19196;BMP280;9730;48.926;11.376;2022-12-18T10:46:41;98740.09;;;-2.23
19196;BMP280;9730;48.926;11.376;2022-12-18T10:49:19;98767.78;;;-2.02
19196;BMP280;9730;48.926;11.376;2022-12-18T10:51:46;98760.22;;;-2.08
19196;BMP280;9730;48.926;11.376;2022-12-18T10:54:16;98753.66;;;-2.06
19196;BMP280;9730;48.926;11.376;2022-12-18T10:56:43;98750.28;;;-2.10
19196;BMP280;9730;48.926;11.376;2022-12-18T10:59:11;98761.88;;;-1.70
19196;BMP280;9730;48.926;11.376;2022-12-18T11:01:50;98766.09;;;-1.66
19196;BMP280;9730;48.926;11.376;2022-12-18T11:04:19;98773.31;;;-1.74
19196;BMP280;9730;48.926;11.376;2022-12-18T11:06:57;98742.53;;;-1.88
19196;BMP280;9730;48.926;11.376;2022-12-18T11:09:27;98744.69;;;-2.03
19196;BMP280;9730;48.926;11.376;2022-12-18T11:11:55;98747.97;;;-2.02
19196;BMP280;9730;48.926;11.376;2022-12-18T11:14:24;98736.78;;;-1.87
19196;BMP280;9730;48.926;11.376;2022-12-18T11:16:52;98738.69;;;-1.74
19196;BMP280;9730;48.926;11.376;2022-12-18T11:19:25;98759.94;;;-1.44
19196;BMP280;9730;48.926;11.376;2022-12-18T11:21:52;98746.41;;;-1.60
19196;BMP280;9730;48.926;11.376;2022-12-18T11:24:22;98747.22;;;-1.60
19196;BMP280;9730;48.926;11.376;2022-12-18T11:26:52;98733.28;;;-1.57
19196;BMP280;9730;48.926;11.376;2022-12-18T11:29:24;98731.53;;;-1.62
19196;BMP280;9730;48.926;11.376;2022-12-18T11:32:19;98723.44;;;-1.54
19196;BMP280;9730;48.926;11.376;2022-12-18T11:34:50;98728.50;;;-1.48
19196;BMP280;9730;48.926;11.376;2022-12-18T11:37:17;98709.22;;;-2.03
19196;BMP280;9730;48.926;11.376;2022-12-18T11:39:47;98707.56;;;-1.64
19196;BMP280;9730;48.926;11.376;2022-12-18T11:42:20;98716.72;;;-1.60
19196;BMP280;9730;48.926;11.376;2022-12-18T11:44:52;98729.59;;;-1.76
19196;BMP280;9730;48.926;11.376;2022-12-18T11:47:26;98718.94;;;-1.72
19196;BMP280;9730;48.926;11.376;2022-12-18T11:49:55;98703.34;;;-1.68
19196;BMP280;9730;48.926;11.376;2022-12-18T11:52:25;98721.25;;;-1.80
19196;BMP280;9730;48.926;11.376;2022-12-18T11:54:56;98704.41;;;-1.56
19196;BMP280;9730;48.926;11.376;2022-12-18T11:57:34;98719.38;;;-1.52
19196;BMP280;9730;48.926;11.376;2022-12-18T12:00:11;98703.69;;;-1.51
19196;BMP280;9730;48.926;11.376;2022-12-18T12:02:49;98697.47;;;-0.87
19196;BMP280;9730;48.926;11.376;2022-12-18T12:05:31;98711.81;;;-0.66
19196;BMP280;9730;48.926;11.376;2022-12-18T12:08:06;98696.28;;;-0.02
19196;BMP280;9730;48.926;11.376;2022-12-18T12:10:43;98693.97;;;-0.46
19196;BMP280;9730;48.926;11.376;2022-12-18T12:13:23;98651.34;;;-1.70
19196;BMP280;9730;48.926;11.376;2022-12-18T12:15:58;98639.69;;;-1.33
19196;BMP280;9730;48.926;11.376;2022-12-18T12:18:33;98658.66;;;-0.85
19196;BMP280;9730;48.926;11.376;2022-12-18T12:21:05;98677.75;;;-0.79
19196;BMP280;9730;48.926;11.376;2022-12-18T12:23:40;98673.97;;;-1.08
19196;BMP280;9730;48.926;11.376;2022-12-18T12:26:11;98662.59;;;-1.43
19196;BMP280;9730;48.926;11.376;2022-12-18T12:28:58;98654.34;;;-1.43
19196;BMP280;9730;48.926;11.376;2022-12-18T12:31:33;98644.44;;;-1.45
19196;BMP280;9730;48.926;11.376;2022-12-18T12:34:08;98657.50;;;-1.52
19196;BMP280;9730;48.926;11.376;2022-12-18T12:36:51;98649.44;;;-1.84
19196;BMP280;9730;48.926;11.376;2022-12-18T12:39:23;98668.75;;;-1.65
19196;BMP280;9730;48.926;11.376;2022-12-18T12:41:51;98650.59;;;-1.67
19196;BMP280;9730;48.926;11.376;2022-12-18T12:44:39;98664.69;;;-1.19
19196;BMP280;9730;48.926;11.376;2022-12-18T12:47:13;98665.38;;;-1.70
19196;BMP280;9730;48.926;11.376;2022-12-18T12:49:41;98654.22;;;-1.04
19196;BMP280;9730;48.926;11.376;2022-12-18T12:52:16;98661.13;;;-1.33
19196;BMP280;9730;48.926;11.376;2022-12-18T12:54:44;98671.44;;;-0.61
19196;BMP280;9730;48.926;11.376;2022-12-18T12:57:15;98678.69;;;-0.17
19196;BMP280;9730;48.926;11.376;2022-12-18T12:59:51;98662.63;;;-0.44
19196;BMP280;9730;48.926;11.376;2022-12-18T13:02:24;98664.47;;;-0.30
19196;BMP280;9730;48.926;11.376;2022-12-18T13:04:59;98662.81;;;0.33
19196;BMP280;9730;48.926;11.376;2022-12-18T13:07:29;98656.47;;;0.57
19196;BMP280;9730;48.926;11.376;2022-12-18T13:10:14;98644.59;;;-0.33
19196;BMP280;9730;48.926;11.376;2022-12-18T13:12:55;98625.50;;;-0.40
19196;BMP280;9730;48.926;11.376;2022-12-18T13:15:32;98632.44;;;-0.16
19196;BMP280;9730;48.926;11.376;2022-12-18T13:18:13;98639.72;;;0.41
19196;BMP280;9730;48.926;11.376;2022-12-18T13:20:42;98618.41;;;-0.13
19196;BMP280;9730;48.926;11.376;2022-12-18T13:26:32;98610.03;;;-0.19
19196;BMP280;9730;48.926;11.376;2022-12-18T13:29:00;98613.69;;;-0.54
19196;BMP280;9730;48.926;11.376;2022-12-18T13:31:59;98595.22;;;-0.77
19196;BMP280;9730;48.926;11.376;2022-12-18T13:34:27;98601.03;;;-0.72
19196;BMP280;9730;48.926;11.376;2022-12-18T13:36:57;98592.16;;;-1.14
19196;BMP280;9730;48.926;11.376;2022-12-18T13:39:43;98587.09;;;-1.20
19196;BMP280;9730;48.926;11.376;2022-12-18T13:42:34;98578.19;;;-1.56
19196;BMP280;9730;48.926;11.376;2022-12-18T13:45:45;98595.69;;;-1.91
19196;BMP280;9730;48.926;11.376;2022-12-18T13:48:20;98606.03;;;-1.67
19196;BMP280;9730;48.926;11.376;2022-12-18T13:50:53;98603.03;;;-1.96
19196;BMP280;9730;48.926;11.376;2022-12-18T13:53:24;98595.69;;;-1.91
19196;BMP280;9730;48.926;11.376;2022-12-18T13:55:51;98608.91;;;-1.89
19196;BMP280;9730;48.926;11.376;2022-12-18T13:58:18;98607.50;;;-1.77
19196;BMP280;9730;48.926;11.376;2022-12-18T14:00:44;98612.13;;;-1.93
19196;BMP280;9730;48.926;11.376;2022-12-18T14:03:21;98616.19;;;-1.97
19196;BMP280;9730;48.926;11.376;2022-12-18T14:05:53;98618.59;;;-2.01
19196;BMP280;9730;48.926;11.376;2022-12-18T14:08:21;98625.22;;;-1.99
19196;BMP280;9730;48.926;11.376;2022-12-18T14:10:49;98627.84;;;-1.91
19196;BMP280;9730;48.926;11.376;2022-12-18T14:13:27;98621.06;;;-2.01
19196;BMP280;9730;48.926;11.376;2022-12-18T14:15:54;98618.00;;;-1.88
19196;BMP280;9730;48.926;11.376;2022-12-18T14:18:24;98616.97;;;-1.99
19196;BMP280;9730;48.926;11.376;2022-12-18T14:20:54;98605.69;;;-2.26
19196;BMP280;9730;48.926;11.376;2022-12-18T14:23:29;98609.97;;;-2.58
19196;BMP280;9730;48.926;11.376;2022-12-18T14:25:56;98618.53;;;-2.42
19196;BMP280;9730;48.926;11.376;2022-12-18T14:28:23;98623.88;;;-2.24
19196;BMP280;9730;48.926;11.376;2022-12-18T14:30:50;98635.72;;;-2.09